Time;durP1;ratioP1;P1;durP2;ratioP2;P2;SDS_P1;SDS_P2;PMS_P1;PMS_P2;Temp;Humidity;BMP_temperature;BMP_pressure;BME280_temperature;BME280_humidity;BME280_pressure;Samples;Min_cycle;Max_cycle;Signal;HPM_P1;HPM_P2
2023/04/16 00:00:02;;;;;;;27.00;15.68;;;5.40;63.00;;;;;;5061319;28;21736;-77
2023/04/16 00:02:27;;;;;;;18.90;12.73;;;5.40;63.10;;;;;;5064766;28;20089;-77
2023/04/16 00:04:53;;;;;;;24.42;15.52;;;5.40;63.10;;;;;;5063934;28;20032;-76
2023/04/16 00:07:18;;;;;;;32.63;17.23;;;5.40;63.00;;;;;;5069775;28;20067;-77
2023/04/16 00:09:45;;;;;;;29.73;15.88;;;5.40;63.10;;;;;;5062399;28;20078;-76
2023/04/16 00:12:13;;;;;;;20.88;13.30;;;5.40;63.10;;;;;;5064386;28;20027;-77
2023/04/16 00:14:39;;;;;;;30.05;16.13;;;5.50;63.00;;;;;;5061088;28;20028;-77
2023/04/16 00:17:04;;;;;;;21.33;13.93;;;5.50;63.10;;;;;;5062064;28;20043;-77
2023/04/16 00:19:30;;;;;;;19.83;12.75;;;5.40;63.00;;;;;;5062170;28;20032;-77
2023/04/16 00:21:55;;;;;;;36.47;18.65;;;5.40;63.10;;;;;;5062824;28;20036;-77
2023/04/16 00:24:21;;;;;;;25.90;15.65;;;5.40;63.00;;;;;;5061144;28;20032;-77
2023/04/16 00:26:47;;;;;;;32.97;16.52;;;5.40;63.00;;;;;;5063187;28;20033;-77
2023/04/16 00:29:12;;;;;;;35.38;17.75;;;5.40;63.00;;;;;;5062504;28;20040;-77
2023/04/16 00:31:38;;;;;;;36.25;17.38;;;5.40;63.10;;;;;;5060385;28;20055;-77
2023/04/16 00:34:03;;;;;;;34.60;16.88;;;5.40;63.10;;;;;;5062654;28;20866;-76
2023/04/16 00:36:29;;;;;;;54.45;16.63;;;5.50;63.20;;;;;;5072259;28;20020;-77
2023/04/16 00:38:55;;;;;;;30.15;15.55;;;5.50;63.10;;;;;;5064109;28;20036;-76
2023/04/16 00:41:21;;;;;;;30.15;16.30;;;5.40;63.10;;;;;;5062486;28;20111;-76
2023/04/16 00:43:47;;;;;;;83.38;18.33;;;5.50;63.10;;;;;;5064246;28;20039;-76
2023/04/16 00:46:14;;;;;;;44.05;14.88;;;5.50;63.10;;;;;;5058430;28;21095;-77
2023/04/16 00:48:42;;;;;;;48.33;15.68;;;5.50;63.20;;;;;;5061358;28;20090;-77
2023/04/16 00:51:08;;;;;;;91.55;17.00;;;5.40;63.10;;;;;;5066770;28;20732;-77
2023/04/16 00:53:34;;;;;;;52.67;15.05;;;5.40;63.10;;;;;;5057742;28;20039;-77
2023/04/16 00:56:02;;;;;;;126.93;18.25;;;5.40;63.10;;;;;;5061020;28;20388;-74
2023/04/16 00:58:29;;;;;;;241.02;23.05;;;5.50;63.10;;;;;;5064628;28;20052;-76
2023/04/16 01:00:55;;;;;;;80.65;17.60;;;5.40;63.10;;;;;;5060839;28;20313;-76
2023/04/16 01:03:21;;;;;;;94.88;20.70;;;5.40;63.10;;;;;;5059462;28;20035;-76
2023/04/16 01:05:48;;;;;;;36.97;14.20;;;5.40;63.20;;;;;;5062191;28;20436;-76
2023/04/16 01:08:19;;;;;;;25.30;13.48;;;5.50;63.20;;;;;;5071032;28;20535;-77
2023/04/16 01:10:45;;;;;;;56.90;17.67;;;5.40;63.20;;;;;;5060198;28;20083;-76
2023/04/16 01:13:11;;;;;;;26.60;13.07;;;5.50;63.20;;;;;;5062133;28;20428;-76
2023/04/16 01:15:37;;;;;;;30.77;14.05;;;5.50;63.20;;;;;;5061207;28;20034;-76
2023/04/16 01:18:02;;;;;;;91.78;19.05;;;5.50;63.20;;;;;;5062600;28;20024;-76
2023/04/16 01:20:28;;;;;;;46.28;15.70;;;5.60;63.20;;;;;;5060759;28;20146;-76
2023/04/16 01:22:54;;;;;;;55.90;16.67;;;5.50;63.10;;;;;;5059625;28;20024;-76
2023/04/16 01:25:19;;;;;;;65.22;21.15;;;5.50;63.10;;;;;;5063657;28;20035;-76
2023/04/16 01:27:48;;;;;;;48.25;17.88;;;5.50;63.20;;;;;;5062622;28;20043;-76
2023/04/16 01:30:14;;;;;;;36.28;15.40;;;5.50;63.10;;;;;;5058942;28;20037;-77
2023/04/16 01:32:39;;;;;;;44.97;18.25;;;5.40;63.10;;;;;;5060422;28;20032;-76
2023/04/16 01:35:05;;;;;;;45.53;17.75;;;5.50;63.20;;;;;;5063310;28;20024;-77
2023/04/16 01:37:31;;;;;;;32.38;15.27;;;5.50;63.20;;;;;;5075434;28;20076;-77
2023/04/16 01:39:57;;;;;;;49.95;18.63;;;5.50;63.20;;;;;;5061166;28;20074;-76
2023/04/16 01:42:22;;;;;;;54.38;15.63;;;5.50;63.20;;;;;;5063290;28;20028;-76
2023/04/16 01:44:48;;;;;;;173.15;23.48;;;5.50;63.10;;;;;;5060779;28;20036;-76
2023/04/16 01:47:14;;;;;;;56.50;15.48;;;5.50;63.10;;;;;;5062371;28;20082;-76
2023/04/16 01:49:40;;;;;;;307.60;27.05;;;5.50;63.20;;;;;;5061615;28;20393;-77
2023/04/16 01:52:07;;;;;;;59.45;18.05;;;5.50;63.20;;;;;;5063811;28;20034;-77
2023/04/16 01:54:32;;;;;;;102.32;23.55;;;5.50;63.20;;;;;;5064319;28;20013;-77
2023/04/16 01:56:58;;;;;;;62.78;19.67;;;5.50;63.20;;;;;;5062631;28;20039;-77
2023/04/16 01:59:23;;;;;;;37.45;19.48;;;5.50;63.40;;;;;;5063906;28;20145;-76
2023/04/16 02:01:49;;;;;;;98.07;30.08;;;5.50;63.20;;;;;;5063549;28;20036;-77
2023/04/16 02:04:15;;;;;;;96.45;25.83;;;5.50;63.40;;;;;;5064585;28;20037;-77
2023/04/16 02:06:40;;;;;;;47.15;20.90;;;5.50;63.20;;;;;;5071407;28;20032;-76
2023/04/16 02:09:06;;;;;;;63.63;23.50;;;5.50;63.20;;;;;;5067595;28;20056;-76
2023/04/16 02:11:31;;;;;;;59.45;23.13;;;5.50;63.20;;;;;;5067690;28;20059;-77
2023/04/16 02:13:57;;;;;;;80.43;23.60;;;5.50;63.30;;;;;;5065037;28;20445;-76
2023/04/16 02:16:23;;;;;;;60.25;22.88;;;5.50;63.20;;;;;;5064850;28;20040;-76
2023/04/16 02:18:49;;;;;;;25.50;15.77;;;5.50;63.30;;;;;;5064648;28;20070;-76
2023/04/16 02:21:14;;;;;;;65.40;24.52;;;5.50;63.40;;;;;;5065431;28;20123;-76
2023/04/16 02:23:40;;;;;;;49.65;22.65;;;5.50;63.40;;;;;;5066101;28;20036;-76
2023/04/16 02:26:05;;;;;;;31.23;17.70;;;5.50;63.40;;;;;;5064700;28;20037;-75
2023/04/16 02:28:31;;;;;;;43.92;20.13;;;5.60;63.40;;;;;;5064290;28;20040;-76
2023/04/16 02:30:57;;;;;;;40.95;20.17;;;5.50;63.30;;;;;;5081245;28;20031;-76
2023/04/16 02:33:25;;;;;;;45.83;20.50;;;5.50;63.20;;;;;;5085220;28;20421;-75
2023/04/16 02:35:51;;;;;;;43.17;20.42;;;5.50;63.20;;;;;;5080322;28;20031;-75
2023/04/16 02:38:16;;;;;;;28.70;16.63;;;5.50;63.30;;;;;;5068287;28;20036;-75
2023/04/16 02:40:42;;;;;;;47.95;21.13;;;5.50;63.30;;;;;;5065259;28;20028;-75
2023/04/16 02:43:08;;;;;;;55.20;22.25;;;5.50;63.40;;;;;;5065610;28;20050;-75
2023/04/16 02:45:34;;;;;;;40.13;17.70;;;5.40;63.30;;;;;;5069950;28;20127;-75
2023/04/16 02:47:59;;;;;;;43.92;18.33;;;5.50;63.20;;;;;;5064110;28;20417;-75
2023/04/16 02:50:25;;;;;;;38.05;17.23;;;5.50;63.30;;;;;;5063995;28;20032;-75
2023/04/16 02:52:51;;;;;;;25.92;14.13;;;5.40;63.20;;;;;;5064524;28;20020;-75
2023/04/16 02:55:16;;;;;;;29.70;13.55;;;5.40;63.30;;;;;;5064456;28;20029;-75
2023/04/16 02:57:42;;;;;;;32.42;14.52;;;5.50;63.30;;;;;;5066571;28;20024;-75
2023/04/16 03:00:08;;;;;;;45.42;18.25;;;5.40;63.30;;;;;;5062956;28;20527;-76
2023/04/16 03:02:33;;;;;;;28.92;15.18;;;5.40;63.30;;;;;;5064363;28;20036;-75
2023/04/16 03:04:59;;;;;;;27.85;15.13;;;5.40;63.30;;;;;;5070110;28;20426;-76
2023/04/16 03:07:25;;;;;;;26.70;12.93;;;5.40;63.30;;;;;;5067197;28;20101;-75
2023/04/16 03:09:50;;;;;;;32.22;15.30;;;5.50;63.40;;;;;;5065629;28;20036;-76
2023/04/16 03:12:16;;;;;;;41.53;16.98;;;5.50;63.40;;;;;;5064346;28;20035;-76
2023/04/16 03:14:41;;;;;;;27.92;14.02;;;5.40;63.30;;;;;;5061825;28;20029;-75
2023/04/16 03:17:07;;;;;;;27.58;14.50;;;5.40;63.30;;;;;;5062367;28;20032;-75
2023/04/16 03:19:32;;;;;;;37.85;17.67;;;5.50;63.30;;;;;;5064390;28;20066;-77
2023/04/16 03:21:58;;;;;;;21.35;13.57;;;5.50;63.40;;;;;;5064274;28;20039;-75
2023/04/16 03:24:23;;;;;;;23.95;12.73;;;5.40;63.30;;;;;;5062830;28;20919;-75
2023/04/16 03:26:49;;;;;;;42.15;17.05;;;5.50;63.40;;;;;;5062912;28;20793;-76
2023/04/16 03:29:15;;;;;;;30.15;14.18;;;5.50;63.40;;;;;;5063369;28;20067;-75
2023/04/16 03:31:40;;;;;;;42.08;17.95;;;5.50;63.40;;;;;;5062749;28;20024;-76
2023/04/16 03:34:06;;;;;;;27.25;14.52;;;5.50;63.30;;;;;;5064161;28;20052;-76
2023/04/16 03:36:32;;;;;;;38.20;16.58;;;5.40;63.20;;;;;;5075105;28;21759;-76
2023/04/16 03:38:57;;;;;;;21.65;11.13;;;5.40;63.30;;;;;;5062350;28;20062;-76
2023/04/16 03:41:23;;;;;;;23.13;12.57;;;5.50;63.40;;;;;;5063526;28;20055;-76
2023/04/16 03:43:48;;;;;;;17.45;10.95;;;5.50;63.30;;;;;;5067399;28;20032;-77
2023/04/16 03:46:14;;;;;;;29.25;14.85;;;5.40;63.30;;;;;;5064923;28;20090;-76
2023/04/16 03:48:39;;;;;;;36.58;15.70;;;5.50;63.40;;;;;;5060973;28;20033;-76
2023/04/16 03:51:05;;;;;;;35.97;15.55;;;5.40;63.30;;;;;;5060898;28;20039;-77
2023/04/16 03:53:30;;;;;;;16.63;10.82;;;5.40;63.30;;;;;;5062987;28;20027;-76
2023/04/16 03:55:56;;;;;;;18.35;9.85;;;5.50;63.40;;;;;;5065317;28;20028;-75
2023/04/16 03:58:22;;;;;;;29.45;13.18;;;5.40;63.40;;;;;;5063516;28;20052;-76
2023/04/16 04:00:48;;;;;;;18.40;10.32;;;5.50;63.40;;;;;;5063888;28;20135;-75
2023/04/16 04:03:15;;;;;;;26.80;13.45;;;5.50;63.40;;;;;;5065698;28;20451;-75
2023/04/16 04:05:41;;;;;;;21.02;11.35;;;5.50;63.40;;;;;;5062628;28;20050;-75
2023/04/16 04:08:08;;;;;;;20.45;11.02;;;5.50;63.30;;;;;;5063894;28;20044;-75
2023/04/16 04:10:35;;;;;;;20.77;11.35;;;5.50;63.30;;;;;;5066554;28;20031;-75
2023/04/16 04:13:02;;;;;;;19.30;11.10;;;5.40;63.30;;;;;;5061870;28;20078;-75
2023/04/16 04:15:28;;;;;;;17.20;10.75;;;5.50;63.30;;;;;;5088075;28;20029;-75
2023/04/16 04:17:53;;;;;;;13.13;8.30;;;5.50;63.30;;;;;;5063722;28;20090;-75
2023/04/16 04:20:19;;;;;;;24.52;11.27;;;5.50;63.20;;;;;;5061411;28;20032;-76
2023/04/16 04:22:45;;;;;;;20.60;10.35;;;5.50;63.20;;;;;;5064428;28;20259;-76
2023/04/16 04:25:10;;;;;;;30.40;13.60;;;5.50;63.20;;;;;;5063995;28;20850;-76
2023/04/16 04:27:36;;;;;;;27.02;14.02;;;5.40;63.10;;;;;;5063723;28;20086;-76
2023/04/16 04:30:06;;;;;;;25.63;12.13;;;5.40;63.20;;;;;;5061638;28;20032;-77
2023/04/16 04:32:31;;;;;;;20.10;10.85;;;5.50;63.30;;;;;;5061567;28;20027;-76
2023/04/16 04:35:00;;;;;;;23.27;12.23;;;5.40;63.20;;;;;;5061917;28;22412;-77
2023/04/16 04:37:25;;;;;;;32.47;13.20;;;5.40;63.20;;;;;;5074340;28;20043;-76
2023/04/16 04:39:51;;;;;;;32.38;14.20;;;5.50;63.20;;;;;;5062754;28;20029;-76
2023/04/16 04:42:18;;;;;;;28.55;13.80;;;5.50;63.10;;;;;;5063099;28;20040;-76
2023/04/16 04:44:44;;;;;;;26.83;13.25;;;5.50;63.10;;;;;;5068868;28;20122;-78
2023/04/16 04:47:10;;;;;;;22.75;12.05;;;5.50;63.20;;;;;;5065289;28;20025;-78
2023/04/16 04:49:35;;;;;;;31.48;14.65;;;5.50;63.10;;;;;;5058973;28;20037;-77
2023/04/16 04:52:01;;;;;;;30.60;16.20;;;5.50;63.10;;;;;;5063993;28;21972;-77
2023/04/16 04:54:30;;;;;;;34.75;16.15;;;5.40;63.10;;;;;;5065149;28;20077;-78
2023/04/16 04:56:56;;;;;;;28.63;15.40;;;5.40;63.00;;;;;;5062028;28;20024;-77
2023/04/16 04:59:22;;;;;;;39.00;16.15;;;5.40;63.10;;;;;;5065576;28;20050;-77
2023/04/16 05:01:48;;;;;;;35.50;16.63;;;5.40;63.10;;;;;;5060875;28;20020;-77
2023/04/16 05:04:15;;;;;;;54.05;20.20;;;5.50;63.10;;;;;;5062266;28;20056;-77
2023/04/16 05:06:41;;;;;;;31.10;15.00;;;5.50;63.10;;;;;;5068978;28;20490;-77
2023/04/16 05:09:10;;;;;;;43.92;17.95;;;5.50;63.00;;;;;;5068502;28;20119;-76
2023/04/16 05:11:37;;;;;;;47.38;18.58;;;5.50;63.10;;;;;;5062390;28;20035;-76
2023/04/16 05:14:02;;;;;;;32.67;15.27;;;5.50;63.00;;;;;;5061068;28;20077;-77
2023/04/16 05:16:28;;;;;;;29.00;14.02;;;5.50;62.90;;;;;;5060151;28;20029;-77
2023/04/16 05:18:54;;;;;;;46.72;17.77;;;5.60;63.00;;;;;;5061424;28;20028;-77
2023/04/16 05:21:20;;;;;;;43.67;16.40;;;5.60;63.00;;;;;;5065621;28;20039;-76
2023/04/16 05:23:46;;;;;;;45.60;17.48;;;5.60;63.00;;;;;;5062706;28;20033;-76
2023/04/16 05:26:12;;;;;;;62.50;20.15;;;5.60;62.90;;;;;;5061884;28;20109;-77
2023/04/16 05:28:37;;;;;;;43.05;16.48;;;5.60;62.90;;;;;;5060405;28;20038;-76
2023/04/16 05:31:03;;;;;;;49.47;19.48;;;5.60;62.90;;;;;;5063835;28;20108;-76
2023/04/16 05:33:28;;;;;;;50.30;19.75;;;5.60;62.90;;;;;;5065228;28;20032;-77
2023/04/16 05:35:54;;;;;;;64.20;27.48;;;5.60;62.90;;;;;;5078343;28;20409;-76
2023/04/16 05:38:19;;;;;;;30.05;14.98;;;5.60;62.80;;;;;;5066742;28;20028;-77
2023/04/16 05:40:45;;;;;;;31.25;15.18;;;5.60;62.80;;;;;;5068752;28;20032;-77
2023/04/16 05:43:10;;;;;;;49.92;18.05;;;5.60;62.90;;;;;;5064737;28;20036;-77
2023/04/16 05:45:39;;;;;;;32.75;15.57;;;5.60;62.80;;;;;;5069828;28;20107;-77
2023/04/16 05:48:07;;;;;;;27.13;13.63;;;5.50;62.70;;;;;;5079100;28;20035;-77
2023/04/16 05:50:32;;;;;;;63.33;22.33;;;5.50;62.70;;;;;;5086021;28;20024;-77
2023/04/16 05:52:58;;;;;;;40.92;16.95;;;5.50;62.80;;;;;;5094229;28;20484;-76
2023/04/16 05:55:23;;;;;;;44.78;20.63;;;5.60;62.80;;;;;;5086888;28;20020;-77
2023/04/16 05:57:49;;;;;;;49.28;18.88;;;5.60;62.90;;;;;;5080121;28;20058;-76
2023/04/16 06:00:15;;;;;;;29.67;15.70;;;5.60;62.90;;;;;;5087922;28;20031;-77
2023/04/16 06:02:40;;;;;;;42.90;17.25;;;5.60;62.90;;;;;;5087511;28;20023;-77
2023/04/16 06:05:06;;;;;;;36.78;15.32;;;5.60;62.80;;;;;;5097424;28;20032;-76
2023/04/16 06:07:32;;;;;;;37.20;17.67;;;5.60;62.80;;;;;;5077471;28;20067;-77
2023/04/16 06:09:57;;;;;;;46.05;19.25;;;5.70;62.90;;;;;;5084084;28;20028;-77
2023/04/16 06:12:23;;;;;;;53.33;20.98;;;5.70;62.80;;;;;;5086552;28;20035;-77
2023/04/16 06:14:48;;;;;;;41.17;18.25;;;5.60;62.70;;;;;;5080272;28;20523;-77
2023/04/16 06:17:14;;;;;;;30.88;16.42;;;5.70;62.70;;;;;;5086945;28;20093;-77
2023/04/16 06:19:40;;;;;;;31.77;15.80;;;5.70;62.80;;;;;;5092808;28;20420;-77
2023/04/16 06:22:06;;;;;;;36.80;17.00;;;5.70;62.80;;;;;;5082785;28;20473;-77
2023/04/16 06:24:32;;;;;;;51.63;18.50;;;5.70;62.80;;;;;;5085471;28;20078;-77
2023/04/16 06:26:57;;;;;;;32.90;14.90;;;5.70;62.60;;;;;;5091718;28;20036;-76
2023/04/16 06:29:23;;;;;;;28.85;16.15;;;5.70;62.60;;;;;;5083522;28;20040;-77
2023/04/16 06:31:49;;;;;;;24.73;13.27;;;5.70;62.70;;;;;;5078053;28;20024;-77
2023/04/16 06:34:14;;;;;;;25.13;13.63;;;5.70;62.70;;;;;;5081713;28;20028;-77
2023/04/16 06:36:40;;;;;;;25.08;13.40;;;5.70;62.60;;;;;;5081280;28;20028;-76
2023/04/16 06:39:05;;;;;;;41.15;19.10;;;5.70;62.60;;;;;;5084554;28;20031;-76
2023/04/16 06:41:31;;;;;;;38.72;18.15;;;5.70;62.60;;;;;;5084365;28;20028;-77
2023/04/16 06:43:56;;;;;;;70.53;22.02;;;5.70;62.50;;;;;;5086074;28;20421;-76
2023/04/16 06:46:22;;;;;;;60.95;21.23;;;5.60;62.50;;;;;;5080293;28;20047;-76
2023/04/16 06:48:48;;;;;;;103.40;26.65;;;5.70;62.60;;;;;;5088516;28;20329;-76
2023/04/16 06:51:13;;;;;;;186.80;31.15;;;5.70;62.60;;;;;;5081510;28;20064;-76
2023/04/16 06:53:39;;;;;;;87.15;28.48;;;5.70;62.60;;;;;;5077192;28;20023;-76
2023/04/16 06:56:08;;;;;;;139.30;32.35;;;5.60;62.50;;;;;;5084167;28;20016;-76
2023/04/16 06:58:33;;;;;;;170.07;29.67;;;5.60;62.50;;;;;;5081347;28;20098;-75
2023/04/16 07:00:59;;;;;;;129.48;33.20;;;5.60;62.50;;;;;;5084077;28;20367;-76
2023/04/16 07:03:25;;;;;;;189.55;37.45;;;5.60;62.50;;;;;;5084045;28;20039;-76
2023/04/16 07:05:50;;;;;;;182.35;33.10;;;5.60;62.60;;;;;;5089462;28;20047;-76
2023/04/16 07:08:16;;;;;;;71.93;28.80;;;5.60;62.60;;;;;;5080146;28;20032;-76
2023/04/16 07:10:41;;;;;;;109.68;25.73;;;5.70;62.60;;;;;;5084709;28;20036;-75
2023/04/16 07:13:07;;;;;;;87.53;28.23;;;5.60;62.50;;;;;;5079548;28;20032;-76
2023/04/16 07:15:33;;;;;;;62.92;25.90;;;5.60;62.50;;;;;;5084511;28;20405;-76
2023/04/16 07:17:58;;;;;;;55.22;22.52;;;5.60;62.50;;;;;;5077239;28;20024;-76
2023/04/16 07:20:24;;;;;;;89.30;29.13;;;5.70;62.60;;;;;;5078231;28;20035;-76
2023/04/16 07:22:49;;;;;;;71.45;28.05;;;5.60;62.70;;;;;;5090421;28;20070;-77
2023/04/16 07:25:15;;;;;;;43.35;21.60;;;5.60;62.50;;;;;;5078858;28;20329;-77
2023/04/16 07:27:40;;;;;;;74.03;26.75;;;5.60;62.50;;;;;;5087635;28;20035;-77
2023/04/16 07:30:07;;;;;;;89.28;28.50;;;5.60;62.50;;;;;;5090069;28;20035;-76
2023/04/16 07:32:32;;;;;;;120.20;23.88;;;5.50;62.40;;;;;;5091909;28;20032;-76
2023/04/16 07:34:58;;;;;;;549.00;48.47;;;5.50;62.40;;;;;;5083543;28;20455;-77
2023/04/16 07:37:23;;;;;;;565.35;48.10;;;5.60;62.50;;;;;;5082533;28;20052;-76
2023/04/16 07:39:49;;;;;;;465.70;44.33;;;5.60;62.50;;;;;;5088688;28;20364;-78
2023/04/16 07:42:15;;;;;;;502.15;47.83;;;5.50;62.40;;;;;;5087534;28;20113;-75
2023/04/16 07:44:41;;;;;;;960.45;67.78;;;5.50;62.50;;;;;;5088679;28;20332;-77
2023/04/16 07:47:06;;;;;;;545.88;46.78;;;5.50;62.40;;;;;;5077949;28;20025;-76
2023/04/16 07:49:32;;;;;;;455.77;47.55;;;5.50;62.40;;;;;;5078237;28;20412;-77
2023/04/16 07:51:57;;;;;;;463.17;51.55;;;5.50;62.50;;;;;;5086165;28;20035;-75
2023/04/16 07:54:25;;;;;;;315.88;51.78;;;5.50;62.50;;;;;;5079836;28;20074;-75
2023/04/16 07:56:51;;;;;;;407.52;45.30;;;5.60;62.50;;;;;;5089064;28;20309;-75
2023/04/16 07:59:23;;;;;;;232.80;44.60;;;5.60;62.50;;;;;;5079602;28;20139;-76
2023/04/16 08:01:49;;;;;;;582.08;59.80;;;5.60;62.40;;;;;;5085216;28;20019;-75
2023/04/16 08:04:18;;;;;;;597.67;64.60;;;5.60;62.50;;;;;;5083068;28;20032;-75
2023/04/16 08:06:44;;;;;;;674.92;74.63;;;5.60;62.40;;;;;;5083974;28;20036;-74
2023/04/16 08:09:09;;;;;;;618.85;68.70;;;5.60;62.40;;;;;;5080404;28;20712;-75
2023/04/16 08:11:35;;;;;;;593.58;64.50;;;5.60;62.50;;;;;;5084443;28;20099;-75
2023/04/16 08:14:01;;;;;;;157.02;42.30;;;5.60;62.50;;;;;;5089687;28;20097;-75
2023/04/16 08:16:26;;;;;;;194.70;45.80;;;5.60;62.40;;;;;;5083447;28;20031;-75
2023/04/16 08:18:52;;;;;;;171.98;44.72;;;5.60;62.50;;;;;;5076099;28;20021;-75
2023/04/16 08:21:17;;;;;;;243.40;48.53;;;5.70;62.60;;;;;;5084777;28;20041;-75
2023/04/16 08:23:43;;;;;;;197.38;45.33;;;5.70;62.60;;;;;;5088853;28;20081;-74
2023/04/16 08:26:08;;;;;;;81.68;35.47;;;5.70;62.60;;;;;;5090609;28;20325;-74
2023/04/16 08:28:34;;;;;;;334.27;49.75;;;5.70;62.40;;;;;;5082001;28;20102;-75
2023/04/16 08:31:02;;;;;;;119.13;42.95;;;5.70;62.40;;;;;;5080208;28;20052;-73
2023/04/16 08:33:28;;;;;;;177.65;49.97;;;5.70;62.40;;;;;;5082046;28;20055;-74
2023/04/16 08:35:54;;;;;;;196.63;55.78;;;5.70;62.30;;;;;;5079041;28;20052;-74
2023/04/16 08:38:19;;;;;;;98.10;41.60;;;5.70;62.40;;;;;;5082235;28;20074;-74
2023/04/16 08:40:47;;;;;;;154.15;48.65;;;5.70;62.30;;;;;;5079842;28;20421;-74
2023/04/16 08:43:15;;;;;;;164.70;50.65;;;5.70;62.30;;;;;;5081188;28;20417;-73
2023/04/16 08:45:43;;;;;;;117.32;43.88;;;5.60;62.20;;;;;;5078682;28;20570;-73
2023/04/16 08:48:10;;;;;;;149.48;50.08;;;5.60;62.10;;;;;;5077547;28;20119;-73
2023/04/16 08:50:40;;;;;;;93.15;39.97;;;5.70;62.10;;;;;;5073752;28;20025;-73
2023/04/16 08:53:09;;;;;;;158.55;53.58;;;5.70;62.20;;;;;;5075372;28;20089;-74
2023/04/16 08:55:42;;;;;;;118.53;45.40;;;5.70;62.20;;;;;;5074506;28;20039;-73
2023/04/16 08:58:13;;;;;;;147.27;49.03;;;5.70;62.20;;;;;;5078320;28;20040;-73
2023/04/16 09:00:42;;;;;;;117.43;43.85;;;5.70;62.20;;;;;;5077250;28;20325;-73
2023/04/16 09:03:08;;;;;;;120.63;44.78;;;5.70;62.00;;;;;;5091087;28;20156;-73
2023/04/16 09:05:34;;;;;;;113.68;42.00;;;5.60;62.00;;;;;;5077011;28;20028;-73
2023/04/16 09:08:00;;;;;;;113.97;42.38;;;5.60;61.90;;;;;;5089062;28;20357;-73
2023/04/16 09:10:26;;;;;;;151.23;49.50;;;5.60;61.90;;;;;;5086710;28;20035;-74
2023/04/16 09:12:55;;;;;;;108.32;42.80;;;5.70;62.00;;;;;;5080068;28;20112;-74
2023/04/16 09:15:21;;;;;;;126.13;46.08;;;5.70;62.10;;;;;;5079574;28;20019;-74
2023/04/16 09:17:47;;;;;;;95.13;42.70;;;5.70;62.00;;;;;;5081930;28;20044;-73
2023/04/16 09:20:14;;;;;;;120.97;48.17;;;5.70;61.90;;;;;;5079222;28;20032;-73
2023/04/16 09:22:55;;;;;;;96.22;41.88;;;5.70;61.80;;;;;;5081956;28;20032;-74
2023/04/16 09:25:24;;;;;;;117.28;43.38;;;5.70;61.80;;;;;;5081082;28;20028;-73
2023/04/16 09:27:50;;;;;;;106.50;41.75;;;5.80;61.80;;;;;;5091934;28;20031;-73
2023/04/16 09:30:25;;;;;;;69.28;36.47;;;5.80;61.70;;;;;;5090461;28;20113;-73
2023/04/16 09:33:10;;;;;;;92.65;38.78;;;5.80;61.60;;;;;;5098843;28;20028;-73
2023/04/16 09:35:43;;;;;;;;;;;5.90;61.70;;;;;;5084452;28;20024;-73
2023/04/16 09:38:09;;;;;;;67.78;34.70;;;5.90;61.50;;;;;;5092849;28;19908;-73
2023/04/16 09:40:36;;;;;;;83.13;38.13;;;5.90;61.40;;;;;;5085848;28;20028;-74
2023/04/16 09:43:10;;;;;;;70.25;36.30;;;6.00;61.40;;;;;;5086479;28;20053;-74
2023/04/16 09:45:48;;;;;;;66.40;33.60;;;6.00;61.40;;;;;;5076897;28;20036;-74
2023/04/16 09:48:14;;;;;;;92.47;42.05;;;5.90;61.30;;;;;;5090978;28;20029;-74
2023/04/16 09:50:50;;;;;;;74.85;35.83;;;6.00;61.30;;;;;;5079208;28;20035;-73
2023/04/16 09:53:26;;;;;;;70.70;37.17;;;6.10;61.20;;;;;;5078396;28;20035;-74
2023/04/16 09:56:01;;;;;;;63.25;32.55;;;6.20;61.20;;;;;;5095158;28;20077;-74
2023/04/16 09:58:27;;;;;;;75.38;37.20;;;6.20;61.20;;;;;;5076326;28;20079;-74
2023/04/16 10:01:06;;;;;;;52.55;30.45;;;6.20;61.10;;;;;;5079821;28;20115;-74
2023/04/16 10:03:33;;;;;;;70.05;35.15;;;6.20;61.10;;;;;;5083057;28;20320;-74
2023/04/16 10:06:19;;;;;;;65.15;32.40;;;6.20;61.10;;;;;;5076181;28;20021;-73
2023/04/16 10:08:52;;;;;;;59.15;30.98;;;6.20;61.00;;;;;;5076754;28;20021;-73
2023/04/16 10:11:19;;;;;;;63.67;32.85;;;6.20;61.20;;;;;;5084347;28;20021;-73
2023/04/16 10:13:45;;;;;;;56.30;29.40;;;6.10;61.40;;;;;;5074630;28;20111;-73
2023/04/16 10:16:11;;;;;;;68.55;33.40;;;6.20;61.00;;;;;;5073308;28;20380;-72
2023/04/16 10:18:38;;;;;;;77.57;38.05;;;6.20;61.20;;;;;;5081291;28;20029;-73
2023/04/16 10:21:04;;;;;;;48.53;28.95;;;6.20;61.10;;;;;;5085771;28;20028;-73
2023/04/16 10:23:31;;;;;;;70.35;34.88;;;6.40;60.90;;;;;;5091967;28;20127;-74
2023/04/16 10:25:58;;;;;;;75.03;35.92;;;6.40;61.10;;;;;;5095835;28;20033;-73
2023/04/16 10:28:24;;;;;;;71.90;34.95;;;6.30;61.70;;;;;;5089547;28;20427;-73
2023/04/16 10:30:54;;;;;;;72.05;33.92;;;6.30;61.60;;;;;;5088578;28;20024;-73
2023/04/16 10:33:31;;;;;;;63.08;32.30;;;6.30;61.40;;;;;;5087764;28;20032;-73
2023/04/16 10:36:16;;;;;;;49.67;28.83;;;6.40;61.40;;;;;;5083890;28;20051;-73
2023/04/16 10:38:48;;;;;;;50.50;29.77;;;6.50;61.20;;;;;;5092321;28;20050;-73
2023/04/16 10:41:13;;;;;;;60.80;30.33;;;6.50;61.50;;;;;;5077765;28;20432;-73
2023/04/16 10:43:44;;;;;;;53.05;29.92;;;6.50;61.70;;;;;;5096271;28;20069;-73
2023/04/16 10:46:25;;;;;;;61.88;32.70;;;6.50;61.70;;;;;;5082451;28;20027;-72
2023/04/16 10:48:53;;;;;;;81.47;38.03;;;6.50;62.30;;;;;;5086818;28;20017;-72
2023/04/16 10:51:33;;;;;;;60.03;31.45;;;6.40;63.00;;;;;;5084684;28;20120;-72
2023/04/16 10:54:08;;;;;;;67.43;31.73;;;6.40;61.90;;;;;;5092374;28;20043;-73
2023/04/16 10:56:36;;;;;;;68.18;33.38;;;6.40;62.40;;;;;;5077880;28;20076;-72
2023/04/16 10:59:09;;;;;;;65.88;32.83;;;6.40;63.10;;;;;;5080623;28;20067;-72
2023/04/16 11:01:45;;;;;;;68.22;33.97;;;6.40;62.90;;;;;;5095970;28;20424;-73
2023/04/16 11:04:20;;;;;;;47.70;26.77;;;6.40;62.60;;;;;;5087886;28;20078;-72
2023/04/16 11:07:14;;;;;;;61.30;31.10;;;6.50;62.50;;;;;;5098272;28;20070;-72
2023/04/16 11:09:58;;;;;;;61.80;32.03;;;6.50;63.40;;;;;;5083905;28;20036;-73
2023/04/16 11:12:33;;;;;;;52.08;29.92;;;6.40;63.30;;;;;;5079128;28;20020;-72
2023/04/16 11:15:01;;;;;;;62.95;31.65;;;6.50;63.10;;;;;;5095657;28;20024;-72
2023/04/16 11:17:46;;;;;;;52.50;28.88;;;6.50;63.40;;;;;;5091487;28;20036;-72
2023/04/16 11:20:26;;;;;;;67.63;32.33;;;6.50;63.90;;;;;;5084229;28;20055;-72
2023/04/16 11:22:54;;;;;;;57.05;29.90;;;6.60;64.20;;;;;;5092202;28;20025;-72
2023/04/16 11:25:21;;;;;;;62.50;31.83;;;6.60;63.80;;;;;;5084289;28;20101;-72
2023/04/16 11:27:49;;;;;;;65.32;31.35;;;6.60;65.50;;;;;;5078781;28;20119;-72
2023/04/16 11:30:15;;;;;;;55.60;30.30;;;6.50;64.60;;;;;;5095992;28;20024;-72
2023/04/16 11:32:43;;;;;;;72.38;35.55;;;6.50;65.20;;;;;;5088196;28;20170;-72
2023/04/16 11:35:14;;;;;;;59.38;31.38;;;6.40;64.90;;;;;;5084619;28;20084;-72
2023/04/16 11:37:41;;;;;;;62.85;30.85;;;6.40;64.70;;;;;;5079288;28;20445;-72
2023/04/16 11:40:08;;;;;;;60.30;34.97;;;6.40;64.10;;;;;;5076699;28;20055;-72
2023/04/16 11:42:39;;;;;;;71.90;34.85;;;6.40;63.20;;;;;;5086888;28;20029;-72
2023/04/16 11:45:06;;;;;;;67.00;31.23;;;6.50;63.70;;;;;;5078272;28;20035;-72
2023/04/16 11:47:45;;;;;;;56.08;28.63;;;6.40;64.00;;;;;;5083743;28;20028;-72
2023/04/16 11:50:22;;;;;;;70.07;34.47;;;6.40;63.70;;;;;;5075957;28;20158;-72
2023/04/16 11:52:50;;;;;;;68.68;34.42;;;6.30;64.00;;;;;;5093286;28;20024;-72
2023/04/16 11:55:16;;;;;;;84.93;38.83;;;6.30;63.80;;;;;;5086265;28;20045;-72
2023/04/16 11:57:42;;;;;;;71.85;33.95;;;6.30;63.40;;;;;;5088612;28;20048;-71
2023/04/16 12:00:14;;;;;;;67.60;35.67;;;6.30;63.20;;;;;;5082370;28;20063;-73
2023/04/16 12:02:44;;;;;;;57.95;29.95;;;6.30;62.90;;;;;;5092529;28;20237;-72
2023/04/16 12:05:37;;;;;;;65.15;32.33;;;6.40;62.70;;;;;;5091933;28;20066;-72
2023/04/16 12:08:11;;;;;;;63.40;31.10;;;6.40;63.30;;;;;;5076669;28;20028;-72
2023/04/16 12:10:54;;;;;;;71.93;32.92;;;6.40;63.10;;;;;;5083060;28;20038;-73
2023/04/16 12:13:20;;;;;;;51.80;28.33;;;6.30;62.60;;;;;;5085045;28;20028;-73
2023/04/16 12:15:49;;;;;;;54.42;29.67;;;6.40;62.60;;;;;;5087102;28;20502;-73
2023/04/16 12:18:21;;;;;;;44.35;26.45;;;6.40;62.50;;;;;;5076326;28;20032;-73
2023/04/16 12:20:49;;;;;;;58.65;30.92;;;6.40;62.50;;;;;;5076018;28;20037;-73
2023/04/16 12:23:26;;;;;;;76.03;34.10;;;6.40;62.80;;;;;;5079190;28;20281;-73
2023/04/16 12:25:52;;;;;;;64.90;31.48;;;6.40;62.50;;;;;;5092258;28;20433;-73
2023/04/16 12:28:37;;;;;;;86.72;36.50;;;6.40;62.50;;;;;;5096467;28;20070;-73
2023/04/16 12:31:03;;;;;;;62.65;30.83;;;6.40;62.40;;;;;;5080302;28;20036;-73
2023/04/16 12:33:29;;;;;;;50.70;28.35;;;6.50;62.10;;;;;;5076228;28;20036;-73
2023/04/16 12:35:55;;;;;;;58.33;31.40;;;6.60;61.80;;;;;;5092816;28;20416;-73